createdAt,value
2019-02-14T00:02:04.058Z,91.10
2019-02-14T00:07:08.089Z,96.03
2019-02-14T00:12:12.110Z,100.20
2019-02-14T00:17:16.408Z,90.00
2019-02-14T00:22:20.429Z,92.53
2019-02-14T00:27:30.447Z,89.07
2019-02-14T00:32:34.491Z,91.17
2019-02-14T00:37:38.519Z,84.83
2019-02-14T00:42:42.541Z,87.87
2019-02-14T00:47:46.560Z,82.90
2019-02-14T00:52:50.596Z,80.07
2019-02-14T00:57:54.629Z,87.73
2019-02-14T01:02:58.664Z,80.63
2019-02-14T01:08:02.687Z,83.30
2019-02-14T01:13:06.707Z,85.13
2019-02-14T01:18:10.727Z,83.33
2019-02-14T01:23:14.754Z,82.37
2019-02-14T01:28:18.758Z,83.83
2019-02-14T01:33:22.775Z,77.13
2019-02-14T01:38:26.806Z,86.67
2019-02-14T01:43:30.861Z,79.23
2019-02-14T01:48:34.860Z,71.07
2019-02-14T01:53:38.884Z,79.90
2019-02-14T01:58:42.891Z,70.93
2019-02-14T02:03:46.885Z,82.90
2019-02-14T02:08:50.894Z,71.10
2019-02-14T02:13:54.915Z,78.53
2019-02-14T02:18:58.926Z,74.27
2019-02-14T02:24:02.929Z,74.20
2019-02-14T02:29:06.936Z,70.20
2019-02-14T02:34:10.954Z,65.60
2019-02-14T02:39:14.978Z,59.57
2019-02-14T02:44:27.536Z,63.50
2019-02-14T02:49:42.667Z,65.80
2019-02-14T02:54:46.805Z,56.10
2019-02-14T02:59:50.816Z,63.17
2019-02-14T03:04:55.017Z,57.47
2019-02-14T03:09:59.104Z,64.07
2019-02-14T03:15:03.421Z,60.03
2019-02-14T03:20:09.064Z,59.33
2019-02-14T03:25:15.344Z,50.93
2019-02-14T03:30:19.364Z,57.13
2019-02-14T03:35:23.363Z,53.83
2019-02-14T03:40:27.389Z,56.33
2019-02-14T03:45:31.430Z,62.13
2019-02-14T03:50:35.818Z,55.03
2019-02-14T03:55:39.870Z,46.60
2019-02-14T04:00:43.859Z,43.27
2019-02-14T04:05:47.861Z,53.03
2019-02-14T04:10:51.874Z,47.20
2019-02-14T04:15:55.932Z,48.70
2019-02-14T04:20:59.940Z,46.80
2019-02-14T04:26:03.951Z,53.43
2019-02-14T04:31:08.001Z,50.97
2019-02-14T04:36:12.025Z,44.57
2019-02-14T04:41:16.040Z,47.83
2019-02-14T04:46:20.047Z,44.47
2019-02-14T04:51:24.064Z,43.53
2019-02-14T04:56:28.231Z,45.53
2019-02-14T05:01:32.338Z,48.57
2019-02-14T05:06:44.059Z,43.50
2019-02-14T05:11:42.094Z,47.80
2019-02-14T05:16:46.125Z,50.77
2019-02-14T05:21:50.137Z,45.10
2019-02-14T05:26:54.162Z,48.73
2019-02-14T05:31:58.192Z,52.33
2019-02-14T05:37:02.239Z,50.03
2019-02-14T05:42:06.248Z,55.90
2019-02-14T05:47:10.268Z,52.03
2019-02-14T05:52:14.286Z,46.57
2019-02-14T05:57:28.605Z,47.20
2019-02-14T06:02:32.602Z,40.23
2019-02-14T06:07:36.634Z,48.97
2019-02-14T06:12:40.668Z,40.07
2019-02-14T06:17:44.701Z,44.30
2019-02-14T06:22:48.709Z,44.40
2019-02-14T06:27:52.731Z,47.77
2019-02-14T06:32:56.763Z,42.70
2019-02-14T06:38:00.842Z,44.80
2019-02-14T06:43:04.867Z,45.47
2019-02-14T06:48:08.947Z,44.40
2019-02-14T06:53:12.961Z,41.70
2019-02-14T06:58:16.979Z,47.37
2019-02-14T07:03:21.093Z,45.07
2019-02-14T07:08:25.106Z,51.67
2019-02-14T07:13:29.197Z,49.27
2019-02-14T07:18:33.255Z,51.30
2019-02-14T07:23:38.076Z,55.83
2019-02-14T07:28:42.129Z,62.53
2019-02-14T07:33:46.253Z,59.47
2019-02-14T07:38:50.372Z,61.93
2019-02-14T07:43:54.432Z,49.30
2019-02-14T07:48:58.709Z,48.37
2019-02-14T07:54:02.824Z,52.20
2019-02-14T07:59:06.864Z,49.80
2019-02-14T08:04:10.915Z,53.43
2019-02-14T08:09:14.986Z,46.53
2019-02-14T08:14:19.111Z,49.87
2019-02-14T08:19:23.147Z,48.47
2019-02-14T08:24:27.179Z,58.27
2019-02-14T08:29:31.262Z,55.13
2019-02-14T08:34:35.312Z,51.93
2019-02-14T08:39:39.351Z,49.73
2019-02-14T08:44:43.359Z,44.87
2019-02-14T08:49:47.500Z,47.87
2019-02-14T08:54:51.514Z,47.40
2019-02-14T08:59:55.523Z,42.53
2019-02-14T09:04:59.539Z,42.37
2019-02-14T09:10:03.579Z,47.00
2019-02-14T09:15:08.413Z,46.07
2019-02-14T09:20:13.267Z,39.43
2019-02-14T09:25:17.282Z,52.50
2019-02-14T09:30:21.303Z,45.87
2019-02-14T09:35:27.143Z,46.23
2019-02-14T09:40:31.070Z,42.07
2019-02-14T09:45:35.085Z,42.23
2019-02-14T09:50:40.183Z,41.63
2019-02-14T09:55:44.236Z,34.53
2019-02-14T10:00:48.247Z,36.60
2019-02-14T10:05:52.272Z,38.03
2019-02-14T10:10:56.315Z,34.13
2019-02-14T10:16:00.328Z,36.30
2019-02-14T10:21:04.362Z,38.10
2019-02-14T10:26:08.393Z,37.97
2019-02-14T10:31:12.416Z,38.23
2019-02-14T10:36:16.467Z,38.37
2019-02-14T10:41:20.506Z,34.13
2019-02-14T10:46:24.482Z,38.13
2019-02-14T10:51:28.494Z,42.40
2019-02-14T10:56:32.512Z,32.37
2019-02-14T11:01:36.524Z,28.63
2019-02-14T11:06:40.554Z,35.40
2019-02-14T11:11:44.661Z,30.10
2019-02-14T11:16:48.649Z,33.53
2019-02-14T11:21:52.662Z,31.73
2019-02-14T11:26:56.707Z,24.57
2019-02-14T11:32:00.821Z,25.63
2019-02-14T11:37:04.832Z,36.50
2019-02-14T11:42:08.879Z,30.05
2019-02-14T11:47:12.895Z,36.13
2019-02-14T11:52:16.918Z,25.08
2019-02-14T11:57:20.942Z,29.12
2019-02-14T12:02:24.963Z,29.05
2019-02-14T12:07:28.990Z,27.58
2019-02-14T12:12:33.044Z,33.33
2019-02-14T12:17:37.060Z,39.15
2019-02-14T12:22:46.833Z,30.00
2019-02-14T12:27:46.810Z,28.60
2019-02-14T12:32:50.842Z,27.48
2019-02-14T12:37:54.975Z,27.13
2019-02-14T12:42:58.997Z,28.80
2019-02-14T12:48:03.028Z,25.85
2019-02-14T12:53:07.060Z,27.48
2019-02-14T12:58:11.098Z,24.90
2019-02-14T13:03:15.468Z,26.17
2019-02-14T13:08:19.533Z,28.05
2019-02-14T13:13:23.596Z,26.02
2019-02-14T13:18:27.645Z,32.55
2019-02-14T13:23:31.664Z,27.82
2019-02-14T13:28:35.681Z,28.10
2019-02-14T13:33:39.706Z,26.82
2019-02-14T13:38:43.783Z,32.63
2019-02-14T13:43:47.816Z,29.07
2019-02-14T13:48:51.844Z,26.45
2019-02-14T13:53:55.871Z,30.13
2019-02-14T13:58:59.980Z,35.50
2019-02-14T14:04:04.014Z,33.23
2019-02-14T14:09:10.024Z,30.30
2019-02-14T14:14:14.067Z,27.55
2019-02-14T14:19:18.105Z,29.35
2019-02-14T14:24:23.015Z,32.10
2019-02-14T14:29:27.507Z,36.07
2019-02-14T14:34:31.744Z,30.97
2019-02-14T14:39:35.760Z,30.57
2019-02-14T14:44:43.438Z,26.57
2019-02-14T14:49:47.452Z,28.17
2019-02-14T14:54:51.511Z,21.67
2019-02-14T14:59:55.899Z,30.70
2019-02-14T15:05:00.435Z,26.87
2019-02-14T15:10:04.797Z,29.07
2019-02-14T15:15:09.008Z,29.23
2019-02-14T15:20:13.556Z,28.47
2019-02-14T15:25:17.598Z,31.70
2019-02-14T15:30:21.662Z,27.85
2019-02-14T15:35:25.720Z,27.40
2019-02-14T15:40:29.750Z,27.67
2019-02-14T15:45:33.787Z,32.13
2019-02-14T15:50:37.847Z,29.27
2019-02-14T15:55:43.805Z,31.43
2019-02-14T16:00:50.009Z,28.87
2019-02-14T16:05:53.690Z,30.90
2019-02-14T16:10:57.943Z,30.27
2019-02-14T16:16:01.956Z,33.97
2019-02-14T16:21:07.822Z,33.63
2019-02-14T16:26:13.079Z,30.50
2019-02-14T16:31:17.503Z,38.40
2019-02-14T16:36:22.839Z,29.37
2019-02-14T16:41:27.042Z,29.67
2019-02-14T16:46:31.075Z,32.07
2019-02-14T16:51:35.139Z,29.87
2019-02-14T16:56:39.144Z,36.60
2019-02-14T17:01:43.165Z,32.07
2019-02-14T17:06:47.204Z,40.40
2019-02-14T17:11:51.264Z,35.53
2019-02-14T17:16:55.303Z,34.27
2019-02-14T17:21:59.334Z,39.97
2019-02-14T17:27:03.524Z,39.67
2019-02-14T17:32:07.552Z,36.50
2019-02-14T17:37:11.697Z,41.07
2019-02-14T17:42:15.712Z,41.30
2019-02-14T17:47:19.737Z,35.30
2019-02-14T17:52:23.775Z,43.63
2019-02-14T17:57:27.773Z,53.20
2019-02-14T18:02:31.800Z,38.50
2019-02-14T18:07:35.853Z,40.63
2019-02-14T18:12:39.899Z,47.70
2019-02-14T18:17:43.949Z,45.03
2019-02-14T18:22:47.958Z,39.53
2019-02-14T18:27:52.071Z,51.13
2019-02-14T18:32:56.104Z,42.83
2019-02-14T18:38:00.147Z,41.30
2019-02-14T18:43:04.211Z,39.53
2019-02-14T18:48:08.229Z,34.73
2019-02-14T18:53:12.330Z,122.73
2019-02-14T18:58:25.827Z,55.57
2019-02-14T19:03:22.473Z,56.90
2019-02-14T19:08:26.518Z,42.23
2019-02-14T19:13:30.562Z,39.30
2019-02-14T19:18:34.612Z,40.27
2019-02-14T19:23:38.653Z,48.63
2019-02-14T19:28:42.718Z,37.67
2019-02-14T19:33:46.779Z,41.57
2019-02-14T19:38:50.854Z,44.07
2019-02-14T19:43:54.933Z,33.87
2019-02-14T19:48:59.053Z,41.70
2019-02-14T19:54:03.214Z,40.87
2019-02-14T19:59:07.392Z,34.13
2019-02-14T20:04:11.490Z,38.30
2019-02-14T20:09:15.740Z,157.47
2019-02-14T20:14:20.617Z,33.83
2019-02-14T20:19:24.714Z,39.47
2019-02-14T20:24:28.951Z,32.27
2019-02-14T20:29:33.046Z,36.60
2019-02-14T20:34:37.163Z,31.00
2019-02-14T20:39:41.725Z,24.10
2019-02-14T20:44:45.781Z,27.10
2019-02-14T20:49:49.882Z,23.50
2019-02-14T20:54:53.998Z,27.07
2019-02-14T20:59:58.081Z,22.90
2019-02-14T21:05:02.143Z,27.07
2019-02-14T21:10:06.208Z,31.63
2019-02-14T21:15:10.271Z,41.73
2019-02-14T21:20:14.364Z,35.83
2019-02-14T21:25:32.693Z,25.50
2019-02-14T21:30:36.707Z,24.80
2019-02-14T21:35:40.750Z,29.23
2019-02-14T21:40:44.789Z,25.60
2019-02-14T21:45:48.818Z,31.47
2019-02-14T21:50:53.853Z,21.43
2019-02-14T21:55:57.866Z,20.43
2019-02-14T22:01:01.948Z,21.17
2019-02-14T22:06:05.968Z,24.10
2019-02-14T22:11:10.032Z,16.77
2019-02-14T22:16:14.051Z,27.23
2019-02-14T22:21:18.060Z,20.87
2019-02-14T22:26:22.108Z,21.30
2019-02-14T22:31:26.118Z,22.33
2019-02-14T22:36:30.144Z,20.73
2019-02-14T22:41:34.175Z,25.40
2019-02-14T22:46:38.210Z,19.83
2019-02-14T22:51:42.238Z,23.77
2019-02-14T22:56:46.247Z,21.77
2019-02-14T23:01:50.261Z,23.57
2019-02-14T23:06:54.290Z,20.60
2019-02-14T23:11:58.305Z,16.50
2019-02-14T23:17:02.332Z,28.97
2019-02-14T23:22:06.404Z,30.90
2019-02-14T23:27:10.438Z,22.20
2019-02-14T23:32:14.448Z,23.40
2019-02-14T23:37:18.499Z,20.13
2019-02-14T23:42:22.524Z,19.13
2019-02-14T23:47:26.542Z,22.07
2019-02-14T23:52:30.567Z,17.73
2019-02-14T23:57:34.586Z,19.37
